This is the latest recevied weather packets stored in our database for station/object LEAS. If no packets are shown the sender has not sent any weather packets the latest 10 day(s).
| Time | Temp. | Humidity | Pressure | Rain* | Wind** | Luminosity | Snow |
|---|---|---|---|---|---|---|---|
| 1787510703 | 21.11° C | 88% | 1011 hPa | - | - | - | - |
| 1787509803 | 22.78° C | 83% | 1011 hPa | - | - | - | - |
| 1787506203 | 22.78° C | 83% | 1012 hPa | - | - | - | - |
| 1787505303 | 22.78° C | 83% | 1012 hPa | - | - | - | - |
| 1787500803 | 23.89° C | 73% | 1012 hPa | - | - | - | - |
| 1787498103 | 23.89° C | 73% | 1013 hPa | - | - | - | - |
| 1787493604 | 22.78° C | 78% | 1013 hPa | - | - | - | - |
| 1787492703 | 22.78° C | 78% | 1013 hPa | - | - | - | - |
| 1787491803 | 22.22° C | 83% | 1014 hPa | - | - | - | - |
| 1787490904 | 22.22° C | 83% | 1014 hPa | - | - | - | - |
| 1787490004 | 22.78° C | 78% | 1014 hPa | - | - | - | - |
| 1787489103 | 22.78° C | 78% | 1014 hPa | - | - | - | - |
| 1787486403 | 22.22° C | 78% | 1014 hPa | - | - | - | - |
| 1787485503 | 22.22° C | 78% | 1014 hPa | - | - | - | - |
| 1787484603 | 22.22° C | 83% | 1015 hPa | - | - | - | - |
| 1787482803 | 21.11° C | 82% | 1014 hPa | - | - | - | - |
| 1787481903 | 21.11° C | 82% | 1014 hPa | - | - | - | - |
| 1787481004 | 21.11° C | 82% | 1014 hPa | - | - | - | - |
| 1787478303 | 20° C | 88% | 1014 hPa | - | - | - | - |
| 1787477404 | 21.11° C | 82% | 1013 hPa | - | - | - | - |
| 1787476503 | 21.11° C | 82% | 1013 hPa | - | - | - | - |
| 1787474704 | 20° C | 88% | 1013 hPa | - | - | - | - |
| 1787473803 | 20° C | 88% | 1013 hPa | - | - | - | - |
| 1787467503 | 18.89° C | 93% | 1012 hPa | - | - | - | - |
| 1787465703 | 18.89° C | 93% | 1012 hPa | - | - | - | - |
* Rain since midnight (hover to see other rain measurements)
** Current wind speed in m/s (hover to see current wind gust speed)